Terminal Aerodrome Forecast
Issued by NWS

Home | Current Version | Previous Version | Text Only | Print | Product List | Glossary Off
Versions: 1 2 3 4 5 6 7 8 9 10 11 12 13 14 15 16 17 18 19

559
FTUS43 KGRB 202227 AAA
TAFCWA
TAF AMD
KCWA 202227Z 2022/2118 19011G18KT P6SM SCT040 BKN120
      TEMPO 2100/2102 2SM TSRA BR BKN025CB
     FM210200 18006KT P6SM SCT120
     FM210600 19006KT 5SM BR SCT120
      TEMPO 2108/2112 3SM BR SCT005 SCT120
     FM211500 22010G16KT P6SM BKN120=

USA.gov is the U.S. government's official web portal to all federal, state and local government web resources and services.